sensor_id;sensor_type;location;lat;lon;timestamp;P1;durP1;ratioP1;P2;durP2;ratioP2
67585;SDS011;55785;47.946;20.540;2023-03-08T00:01:27;30.37;;;15.63;;
67585;SDS011;55785;47.946;20.540;2023-03-08T00:03:53;34.60;;;19.10;;
67585;SDS011;55785;47.946;20.540;2023-03-08T00:06:19;20.53;;;10.77;;
67585;SDS011;55785;47.946;20.540;2023-03-08T00:08:45;20.03;;;11.37;;
67585;SDS011;55785;47.946;20.540;2023-03-08T00:11:11;43.20;;;22.27;;
67585;SDS011;55785;47.946;20.540;2023-03-08T00:13:37;39.20;;;22.93;;
67585;SDS011;55785;47.946;20.540;2023-03-08T00:16:04;22.60;;;11.37;;
67585;SDS011;55785;47.946;20.540;2023-03-08T00:18:32;25.57;;;12.37;;
67585;SDS011;55785;47.946;20.540;2023-03-08T00:20:59;21.30;;;12.10;;
67585;SDS011;55785;47.946;20.540;2023-03-08T00:23:32;22.23;;;12.10;;
67585;SDS011;55785;47.946;20.540;2023-03-08T00:25:58;25.70;;;13.10;;
67585;SDS011;55785;47.946;20.540;2023-03-08T00:28:23;27.67;;;14.93;;
67585;SDS011;55785;47.946;20.540;2023-03-08T00:30:56;31.20;;;16.17;;
67585;SDS011;55785;47.946;20.540;2023-03-08T00:33:31;22.07;;;12.40;;
67585;SDS011;55785;47.946;20.540;2023-03-08T00:36:04;29.30;;;14.60;;
67585;SDS011;55785;47.946;20.540;2023-03-08T00:38:31;52.37;;;25.90;;
67585;SDS011;55785;47.946;20.540;2023-03-08T00:40:58;36.67;;;18.07;;
67585;SDS011;55785;47.946;20.540;2023-03-08T00:43:24;30.43;;;16.10;;
67585;SDS011;55785;47.946;20.540;2023-03-08T00:45:50;30.47;;;16.63;;
67585;SDS011;55785;47.946;20.540;2023-03-08T00:48:15;26.20;;;13.20;;
67585;SDS011;55785;47.946;20.540;2023-03-08T00:50:41;24.10;;;13.00;;
67585;SDS011;55785;47.946;20.540;2023-03-08T00:53:07;24.93;;;12.83;;
67585;SDS011;55785;47.946;20.540;2023-03-08T00:55:33;30.43;;;16.77;;
67585;SDS011;55785;47.946;20.540;2023-03-08T00:57:58;29.13;;;14.80;;
67585;SDS011;55785;47.946;20.540;2023-03-08T01:00:24;25.60;;;13.83;;
67585;SDS011;55785;47.946;20.540;2023-03-08T01:02:49;26.17;;;13.13;;
67585;SDS011;55785;47.946;20.540;2023-03-08T01:05:15;30.33;;;15.37;;
67585;SDS011;55785;47.946;20.540;2023-03-08T01:07:40;21.73;;;12.17;;
67585;SDS011;55785;47.946;20.540;2023-03-08T01:10:05;20.07;;;12.07;;
67585;SDS011;55785;47.946;20.540;2023-03-08T01:12:32;23.00;;;11.73;;
67585;SDS011;55785;47.946;20.540;2023-03-08T01:14:58;22.03;;;11.60;;
67585;SDS011;55785;47.946;20.540;2023-03-08T01:17:23;21.13;;;11.50;;
67585;SDS011;55785;47.946;20.540;2023-03-08T01:19:49;22.57;;;11.37;;
67585;SDS011;55785;47.946;20.540;2023-03-08T01:22:14;24.80;;;12.50;;
67585;SDS011;55785;47.946;20.540;2023-03-08T01:24:43;25.93;;;13.80;;
67585;SDS011;55785;47.946;20.540;2023-03-08T01:27:12;26.40;;;14.00;;
67585;SDS011;55785;47.946;20.540;2023-03-08T01:29:37;22.90;;;13.53;;
67585;SDS011;55785;47.946;20.540;2023-03-08T01:32:03;26.13;;;14.17;;
67585;SDS011;55785;47.946;20.540;2023-03-08T01:34:28;25.37;;;13.10;;
67585;SDS011;55785;47.946;20.540;2023-03-08T01:36:54;21.30;;;11.70;;
67585;SDS011;55785;47.946;20.540;2023-03-08T01:39:19;24.73;;;14.20;;
67585;SDS011;55785;47.946;20.540;2023-03-08T01:41:44;28.77;;;15.53;;
67585;SDS011;55785;47.946;20.540;2023-03-08T01:44:13;24.00;;;11.77;;
67585;SDS011;55785;47.946;20.540;2023-03-08T01:46:40;27.90;;;14.57;;
67585;SDS011;55785;47.946;20.540;2023-03-08T01:55:06;26.30;;;14.93;;
67585;SDS011;55785;47.946;20.540;2023-03-08T01:57:36;17.13;;;9.23;;
67585;SDS011;55785;47.946;20.540;2023-03-08T02:00:06;19.00;;;11.27;;
67585;SDS011;55785;47.946;20.540;2023-03-08T02:05:23;22.83;;;13.17;;
67585;SDS011;55785;47.946;20.540;2023-03-08T02:07:50;20.90;;;11.63;;
67585;SDS011;55785;47.946;20.540;2023-03-08T02:10:15;25.70;;;13.57;;
67585;SDS011;55785;47.946;20.540;2023-03-08T02:12:42;18.93;;;10.33;;
67585;SDS011;55785;47.946;20.540;2023-03-08T02:15:08;21.03;;;11.07;;
67585;SDS011;55785;47.946;20.540;2023-03-08T02:17:38;22.67;;;11.80;;
67585;SDS011;55785;47.946;20.540;2023-03-08T02:20:18;23.90;;;13.47;;
67585;SDS011;55785;47.946;20.540;2023-03-08T02:22:49;20.07;;;11.50;;
67585;SDS011;55785;47.946;20.540;2023-03-08T02:25:19;25.03;;;13.33;;
67585;SDS011;55785;47.946;20.540;2023-03-08T02:27:50;24.02;;;13.05;;
67585;SDS011;55785;47.946;20.540;2023-03-08T02:30:21;22.27;;;10.97;;
67585;SDS011;55785;47.946;20.540;2023-03-08T02:32:48;19.17;;;10.73;;
67585;SDS011;55785;47.946;20.540;2023-03-08T02:35:14;20.23;;;11.27;;
67585;SDS011;55785;47.946;20.540;2023-03-08T02:37:39;21.03;;;11.37;;
67585;SDS011;55785;47.946;20.540;2023-03-08T02:40:05;22.73;;;12.17;;
67585;SDS011;55785;47.946;20.540;2023-03-08T02:42:31;26.23;;;14.47;;
67585;SDS011;55785;47.946;20.540;2023-03-08T02:44:56;19.63;;;10.40;;
67585;SDS011;55785;47.946;20.540;2023-03-08T02:47:22;19.20;;;10.37;;
67585;SDS011;55785;47.946;20.540;2023-03-08T02:49:47;21.57;;;10.87;;
67585;SDS011;55785;47.946;20.540;2023-03-08T02:52:12;22.23;;;13.00;;
67585;SDS011;55785;47.946;20.540;2023-03-08T02:54:38;22.47;;;11.73;;
67585;SDS011;55785;47.946;20.540;2023-03-08T02:57:03;18.27;;;10.33;;
67585;SDS011;55785;47.946;20.540;2023-03-08T02:59:28;20.63;;;10.57;;
67585;SDS011;55785;47.946;20.540;2023-03-08T03:01:54;22.27;;;12.17;;
67585;SDS011;55785;47.946;20.540;2023-03-08T03:04:19;20.80;;;10.23;;
67585;SDS011;55785;47.946;20.540;2023-03-08T03:06:44;18.87;;;10.43;;
67585;SDS011;55785;47.946;20.540;2023-03-08T03:09:10;23.57;;;11.23;;
67585;SDS011;55785;47.946;20.540;2023-03-08T03:11:35;25.07;;;13.20;;
67585;SDS011;55785;47.946;20.540;2023-03-08T03:14:01;21.77;;;11.60;;
67585;SDS011;55785;47.946;20.540;2023-03-08T03:16:26;28.47;;;15.23;;
67585;SDS011;55785;47.946;20.540;2023-03-08T03:18:53;41.87;;;19.83;;
67585;SDS011;55785;47.946;20.540;2023-03-08T03:21:19;29.00;;;14.23;;
67585;SDS011;55785;47.946;20.540;2023-03-08T03:23:45;27.20;;;12.57;;
67585;SDS011;55785;47.946;20.540;2023-03-08T03:26:20;23.40;;;11.87;;
67585;SDS011;55785;47.946;20.540;2023-03-08T03:28:47;18.37;;;9.20;;
67585;SDS011;55785;47.946;20.540;2023-03-08T03:31:17;20.63;;;9.93;;
67585;SDS011;55785;47.946;20.540;2023-03-08T03:33:44;20.70;;;10.60;;
67585;SDS011;55785;47.946;20.540;2023-03-08T03:36:11;24.37;;;11.67;;
67585;SDS011;55785;47.946;20.540;2023-03-08T03:38:38;22.53;;;11.07;;
67585;SDS011;55785;47.946;20.540;2023-03-08T03:41:08;19.40;;;11.07;;
67585;SDS011;55785;47.946;20.540;2023-03-08T03:43:35;21.97;;;10.30;;
67585;SDS011;55785;47.946;20.540;2023-03-08T03:46:02;20.47;;;10.27;;
67585;SDS011;55785;47.946;20.540;2023-03-08T03:48:30;18.90;;;10.13;;
67585;SDS011;55785;47.946;20.540;2023-03-08T03:50:56;19.03;;;10.27;;
67585;SDS011;55785;47.946;20.540;2023-03-08T03:53:23;17.57;;;9.60;;
67585;SDS011;55785;47.946;20.540;2023-03-08T03:55:49;18.07;;;9.33;;
67585;SDS011;55785;47.946;20.540;2023-03-08T03:58:15;22.50;;;9.73;;
67585;SDS011;55785;47.946;20.540;2023-03-08T04:00:40;26.00;;;11.87;;
67585;SDS011;55785;47.946;20.540;2023-03-08T04:03:06;27.80;;;12.00;;
67585;SDS011;55785;47.946;20.540;2023-03-08T04:05:31;26.43;;;12.30;;
67585;SDS011;55785;47.946;20.540;2023-03-08T04:07:57;25.37;;;12.90;;
67585;SDS011;55785;47.946;20.540;2023-03-08T04:10:22;31.83;;;14.50;;
67585;SDS011;55785;47.946;20.540;2023-03-08T04:12:48;36.10;;;15.33;;
67585;SDS011;55785;47.946;20.540;2023-03-08T04:15:13;33.47;;;15.17;;
67585;SDS011;55785;47.946;20.540;2023-03-08T04:17:39;38.17;;;18.07;;
67585;SDS011;55785;47.946;20.540;2023-03-08T04:20:04;34.73;;;16.87;;
67585;SDS011;55785;47.946;20.540;2023-03-08T04:22:30;35.67;;;15.50;;
67585;SDS011;55785;47.946;20.540;2023-03-08T04:24:56;35.03;;;16.10;;
67585;SDS011;55785;47.946;20.540;2023-03-08T04:27:21;30.40;;;14.93;;
67585;SDS011;55785;47.946;20.540;2023-03-08T04:29:47;34.17;;;15.80;;
67585;SDS011;55785;47.946;20.540;2023-03-08T04:32:12;36.53;;;16.37;;
67585;SDS011;55785;47.946;20.540;2023-03-08T04:34:37;37.47;;;16.20;;
67585;SDS011;55785;47.946;20.540;2023-03-08T04:37:03;31.77;;;15.63;;
67585;SDS011;55785;47.946;20.540;2023-03-08T04:39:28;36.00;;;16.30;;
67585;SDS011;55785;47.946;20.540;2023-03-08T04:41:53;39.10;;;17.60;;
67585;SDS011;55785;47.946;20.540;2023-03-08T04:44:19;37.20;;;18.60;;
67585;SDS011;55785;47.946;20.540;2023-03-08T04:46:44;36.73;;;17.17;;
67585;SDS011;55785;47.946;20.540;2023-03-08T04:49:09;37.20;;;17.83;;
67585;SDS011;55785;47.946;20.540;2023-03-08T04:51:35;39.03;;;17.73;;
67585;SDS011;55785;47.946;20.540;2023-03-08T04:54:00;40.07;;;17.87;;
67585;SDS011;55785;47.946;20.540;2023-03-08T04:56:26;35.53;;;16.80;;
67585;SDS011;55785;47.946;20.540;2023-03-08T04:58:51;35.90;;;17.97;;
67585;SDS011;55785;47.946;20.540;2023-03-08T05:01:17;36.70;;;17.63;;
67585;SDS011;55785;47.946;20.540;2023-03-08T05:03:45;40.47;;;18.13;;
67585;SDS011;55785;47.946;20.540;2023-03-08T05:06:10;45.97;;;20.70;;
67585;SDS011;55785;47.946;20.540;2023-03-08T05:08:36;44.50;;;19.70;;
67585;SDS011;55785;47.946;20.540;2023-03-08T05:11:02;48.93;;;20.47;;
67585;SDS011;55785;47.946;20.540;2023-03-08T05:13:29;50.93;;;20.87;;
67585;SDS011;55785;47.946;20.540;2023-03-08T05:15:58;46.37;;;20.27;;
67585;SDS011;55785;47.946;20.540;2023-03-08T05:18:23;48.10;;;21.60;;
67585;SDS011;55785;47.946;20.540;2023-03-08T05:20:52;58.87;;;23.30;;
67585;SDS011;55785;47.946;20.540;2023-03-08T05:23:38;48.47;;;21.90;;
67585;SDS011;55785;47.946;20.540;2023-03-08T05:26:05;55.93;;;22.60;;
67585;SDS011;55785;47.946;20.540;2023-03-08T05:28:32;54.10;;;22.30;;
67585;SDS011;55785;47.946;20.540;2023-03-08T05:31:02;53.87;;;22.40;;
67585;SDS011;55785;47.946;20.540;2023-03-08T05:33:29;61.63;;;25.10;;
67585;SDS011;55785;47.946;20.540;2023-03-08T05:35:55;48.67;;;20.83;;
67585;SDS011;55785;47.946;20.540;2023-03-08T05:38:21;52.30;;;22.20;;
67585;SDS011;55785;47.946;20.540;2023-03-08T05:40:47;57.70;;;25.57;;
67585;SDS011;55785;47.946;20.540;2023-03-08T05:43:14;66.77;;;28.90;;
67585;SDS011;55785;47.946;20.540;2023-03-08T05:45:39;52.60;;;24.63;;
67585;SDS011;55785;47.946;20.540;2023-03-08T05:48:05;55.50;;;25.37;;
67585;SDS011;55785;47.946;20.540;2023-03-08T05:50:30;54.90;;;25.57;;
67585;SDS011;55785;47.946;20.540;2023-03-08T05:52:55;50.43;;;23.00;;
67585;SDS011;55785;47.946;20.540;2023-03-08T05:55:21;49.93;;;20.07;;
67585;SDS011;55785;47.946;20.540;2023-03-08T05:57:46;50.07;;;22.23;;
67585;SDS011;55785;47.946;20.540;2023-03-08T06:00:12;50.63;;;23.40;;
67585;SDS011;55785;47.946;20.540;2023-03-08T06:02:37;43.57;;;19.70;;
67585;SDS011;55785;47.946;20.540;2023-03-08T06:05:03;49.10;;;22.70;;
67585;SDS011;55785;47.946;20.540;2023-03-08T06:07:28;49.27;;;22.83;;
67585;SDS011;55785;47.946;20.540;2023-03-08T06:09:53;51.43;;;22.70;;
67585;SDS011;55785;47.946;20.540;2023-03-08T06:12:18;53.10;;;23.23;;
67585;SDS011;55785;47.946;20.540;2023-03-08T06:14:44;68.30;;;29.73;;
67585;SDS011;55785;47.946;20.540;2023-03-08T06:17:09;69.13;;;31.37;;
67585;SDS011;55785;47.946;20.540;2023-03-08T06:19:34;52.60;;;23.17;;
67585;SDS011;55785;47.946;20.540;2023-03-08T06:22:00;45.73;;;20.87;;
67585;SDS011;55785;47.946;20.540;2023-03-08T06:24:25;45.73;;;20.50;;
67585;SDS011;55785;47.946;20.540;2023-03-08T06:26:50;113.40;;;39.77;;
67585;SDS011;55785;47.946;20.540;2023-03-08T06:29:16;64.30;;;26.30;;
67585;SDS011;55785;47.946;20.540;2023-03-08T06:31:41;45.70;;;21.57;;
67585;SDS011;55785;47.946;20.540;2023-03-08T06:34:06;45.80;;;22.73;;
67585;SDS011;55785;47.946;20.540;2023-03-08T06:36:32;160.60;;;80.73;;
67585;SDS011;55785;47.946;20.540;2023-03-08T06:38:57;121.07;;;48.87;;
67585;SDS011;55785;47.946;20.540;2023-03-08T06:41:23;86.40;;;41.20;;
67585;SDS011;55785;47.946;20.540;2023-03-08T06:43:48;70.13;;;39.33;;
67585;SDS011;55785;47.946;20.540;2023-03-08T06:46:14;33.27;;;19.77;;
67585;SDS011;55785;47.946;20.540;2023-03-08T06:48:41;30.60;;;17.47;;
67585;SDS011;55785;47.946;20.540;2023-03-08T06:51:07;34.40;;;20.73;;
67585;SDS011;55785;47.946;20.540;2023-03-08T06:53:32;32.50;;;18.80;;
67585;SDS011;55785;47.946;20.540;2023-03-08T06:55:58;32.80;;;17.70;;
67585;SDS011;55785;47.946;20.540;2023-03-08T06:58:24;31.00;;;16.23;;
67585;SDS011;55785;47.946;20.540;2023-03-08T07:00:49;28.87;;;16.43;;
67585;SDS011;55785;47.946;20.540;2023-03-08T07:03:14;31.23;;;17.83;;
67585;SDS011;55785;47.946;20.540;2023-03-08T07:05:40;28.63;;;16.10;;
67585;SDS011;55785;47.946;20.540;2023-03-08T07:08:06;36.43;;;21.17;;
67585;SDS011;55785;47.946;20.540;2023-03-08T07:10:32;29.43;;;15.90;;
67585;SDS011;55785;47.946;20.540;2023-03-08T07:12:58;26.30;;;15.27;;
67585;SDS011;55785;47.946;20.540;2023-03-08T07:15:24;27.30;;;14.73;;
67585;SDS011;55785;47.946;20.540;2023-03-08T07:17:50;42.17;;;24.37;;
67585;SDS011;55785;47.946;20.540;2023-03-08T07:20:17;30.67;;;16.67;;
67585;SDS011;55785;47.946;20.540;2023-03-08T07:22:43;77.03;;;49.20;;
67585;SDS011;55785;47.946;20.540;2023-03-08T07:25:09;33.80;;;22.73;;
67585;SDS011;55785;47.946;20.540;2023-03-08T07:27:36;53.33;;;38.00;;
67585;SDS011;55785;47.946;20.540;2023-03-08T07:30:01;36.07;;;17.37;;
67585;SDS011;55785;47.946;20.540;2023-03-08T07:32:27;30.20;;;18.27;;
67585;SDS011;55785;47.946;20.540;2023-03-08T07:34:52;28.57;;;16.87;;
67585;SDS011;55785;47.946;20.540;2023-03-08T07:37:17;28.73;;;13.60;;
67585;SDS011;55785;47.946;20.540;2023-03-08T07:39:43;21.77;;;12.37;;
67585;SDS011;55785;47.946;20.540;2023-03-08T07:42:11;25.03;;;14.87;;
67585;SDS011;55785;47.946;20.540;2023-03-08T07:44:37;20.60;;;11.70;;
67585;SDS011;55785;47.946;20.540;2023-03-08T07:47:03;20.93;;;11.13;;
67585;SDS011;55785;47.946;20.540;2023-03-08T07:49:29;23.30;;;13.37;;
67585;SDS011;55785;47.946;20.540;2023-03-08T07:51:55;21.50;;;11.90;;
67585;SDS011;55785;47.946;20.540;2023-03-08T07:54:20;64.17;;;28.33;;
67585;SDS011;55785;47.946;20.540;2023-03-08T07:56:46;31.77;;;14.27;;
67585;SDS011;55785;47.946;20.540;2023-03-08T07:59:11;53.90;;;22.77;;
67585;SDS011;55785;47.946;20.540;2023-03-08T08:01:37;44.53;;;24.57;;
67585;SDS011;55785;47.946;20.540;2023-03-08T08:04:02;18.87;;;11.30;;
67585;SDS011;55785;47.946;20.540;2023-03-08T08:06:27;23.00;;;13.40;;
67585;SDS011;55785;47.946;20.540;2023-03-08T08:08:56;20.47;;;12.17;;
67585;SDS011;55785;47.946;20.540;2023-03-08T08:11:21;21.83;;;12.60;;
67585;SDS011;55785;47.946;20.540;2023-03-08T08:13:47;16.97;;;10.20;;
67585;SDS011;55785;47.946;20.540;2023-03-08T08:16:14;19.00;;;10.10;;
67585;SDS011;55785;47.946;20.540;2023-03-08T08:18:40;17.40;;;10.40;;
67585;SDS011;55785;47.946;20.540;2023-03-08T08:21:06;18.77;;;10.63;;
67585;SDS011;55785;47.946;20.540;2023-03-08T08:23:33;15.50;;;9.20;;
67585;SDS011;55785;47.946;20.540;2023-03-08T08:25:58;15.13;;;9.27;;
67585;SDS011;55785;47.946;20.540;2023-03-08T08:28:24;25.37;;;14.70;;
67585;SDS011;55785;47.946;20.540;2023-03-08T08:30:54;18.60;;;9.93;;
67585;SDS011;55785;47.946;20.540;2023-03-08T08:33:27;20.63;;;10.47;;
67585;SDS011;55785;47.946;20.540;2023-03-08T08:35:53;16.87;;;9.73;;
67585;SDS011;55785;47.946;20.540;2023-03-08T08:38:19;14.50;;;9.17;;
67585;SDS011;55785;47.946;20.540;2023-03-08T08:40:44;18.67;;;11.50;;
67585;SDS011;55785;47.946;20.540;2023-03-08T08:43:10;16.27;;;9.67;;
67585;SDS011;55785;47.946;20.540;2023-03-08T08:45:35;17.27;;;9.93;;
67585;SDS011;55785;47.946;20.540;2023-03-08T08:48:00;17.13;;;9.93;;
67585;SDS011;55785;47.946;20.540;2023-03-08T08:50:26;16.97;;;9.57;;
67585;SDS011;55785;47.946;20.540;2023-03-08T08:52:51;17.73;;;8.77;;
67585;SDS011;55785;47.946;20.540;2023-03-08T08:55:16;15.10;;;9.00;;
67585;SDS011;55785;47.946;20.540;2023-03-08T08:57:42;18.30;;;10.07;;
67585;SDS011;55785;47.946;20.540;2023-03-08T09:00:07;17.30;;;9.47;;
67585;SDS011;55785;47.946;20.540;2023-03-08T09:02:33;18.23;;;11.17;;
67585;SDS011;55785;47.946;20.540;2023-03-08T09:04:58;13.50;;;8.47;;
67585;SDS011;55785;47.946;20.540;2023-03-08T09:07:24;17.07;;;9.33;;
67585;SDS011;55785;47.946;20.540;2023-03-08T09:09:49;15.13;;;8.93;;
67585;SDS011;55785;47.946;20.540;2023-03-08T09:12:17;15.73;;;9.50;;
67585;SDS011;55785;47.946;20.540;2023-03-08T09:14:43;15.80;;;8.73;;
67585;SDS011;55785;47.946;20.540;2023-03-08T09:17:08;16.43;;;9.03;;
67585;SDS011;55785;47.946;20.540;2023-03-08T09:19:33;13.33;;;8.87;;
67585;SDS011;55785;47.946;20.540;2023-03-08T09:21:59;15.87;;;8.80;;
67585;SDS011;55785;47.946;20.540;2023-03-08T09:24:24;15.93;;;9.57;;
67585;SDS011;55785;47.946;20.540;2023-03-08T09:26:49;14.00;;;9.00;;
67585;SDS011;55785;47.946;20.540;2023-03-08T09:29:15;13.53;;;9.30;;
67585;SDS011;55785;47.946;20.540;2023-03-08T09:31:40;18.70;;;12.50;;
67585;SDS011;55785;47.946;20.540;2023-03-08T09:34:05;16.10;;;10.67;;
67585;SDS011;55785;47.946;20.540;2023-03-08T09:36:31;15.07;;;9.07;;
67585;SDS011;55785;47.946;20.540;2023-03-08T09:38:56;15.80;;;9.17;;
67585;SDS011;55785;47.946;20.540;2023-03-08T09:41:25;14.27;;;8.53;;
67585;SDS011;55785;47.946;20.540;2023-03-08T09:44:12;13.17;;;8.10;;
67585;SDS011;55785;47.946;20.540;2023-03-08T09:49:36;10.90;;;7.50;;
67585;SDS011;55785;47.946;20.540;2023-03-08T09:52:09;12.80;;;7.55;;
67585;SDS011;55785;47.946;20.540;2023-03-08T09:54:54;11.63;;;7.47;;
67585;SDS011;55785;47.946;20.540;2023-03-08T09:57:23;13.10;;;8.47;;
67585;SDS011;55785;47.946;20.540;2023-03-08T09:59:54;11.02;;;7.00;;
67585;SDS011;55785;47.946;20.540;2023-03-08T10:05:22;12.63;;;7.15;;
67585;SDS011;55785;47.946;20.540;2023-03-08T10:07:55;37.53;;;22.58;;
67585;SDS011;55785;47.946;20.540;2023-03-08T10:11:11;12.40;;;8.85;;
67585;SDS011;55785;47.946;20.540;2023-03-08T10:16:11;10.50;;;7.38;;
67585;SDS011;55785;47.946;20.540;2023-03-08T10:19:02;9.35;;;6.10;;
67585;SDS011;55785;47.946;20.540;2023-03-08T10:21:36;8.50;;;5.43;;
67585;SDS011;55785;47.946;20.540;2023-03-08T10:26:30;11.45;;;6.43;;
67585;SDS011;55785;47.946;20.540;2023-03-08T10:28:56;7.95;;;5.70;;
67585;SDS011;55785;47.946;20.540;2023-03-08T10:31:25;11.38;;;5.85;;
67585;SDS011;55785;47.946;20.540;2023-03-08T10:33:55;14.20;;;8.57;;
67585;SDS011;55785;47.946;20.540;2023-03-08T10:36:26;16.20;;;8.77;;
67585;SDS011;55785;47.946;20.540;2023-03-08T10:38:55;14.68;;;8.45;;
67585;SDS011;55785;47.946;20.540;2023-03-08T10:41:21;13.60;;;8.63;;
67585;SDS011;55785;47.946;20.540;2023-03-08T10:43:48;12.18;;;8.30;;
67585;SDS011;55785;47.946;20.540;2023-03-08T10:46:16;13.27;;;7.85;;
67585;SDS011;55785;47.946;20.540;2023-03-08T10:48:44;9.48;;;6.00;;
67585;SDS011;55785;47.946;20.540;2023-03-08T10:53:57;56.30;;;25.05;;
67585;SDS011;55785;47.946;20.540;2023-03-08T10:59:01;106.85;;;48.85;;
67585;SDS011;55785;47.946;20.540;2023-03-08T11:01:31;13.95;;;9.10;;
67585;SDS011;55785;47.946;20.540;2023-03-08T11:06:29;8.40;;;6.30;;
67585;SDS011;55785;47.946;20.540;2023-03-08T11:08:59;9.57;;;6.80;;
67585;SDS011;55785;47.946;20.540;2023-03-08T11:11:26;7.22;;;5.53;;
67585;SDS011;55785;47.946;20.540;2023-03-08T11:13:52;12.98;;;9.18;;
67585;SDS011;55785;47.946;20.540;2023-03-08T11:19:23;9.23;;;6.07;;
67585;SDS011;55785;47.946;20.540;2023-03-08T11:51:43;12.98;;;8.05;;
67585;SDS011;55785;47.946;20.540;2023-03-08T11:54:30;13.13;;;7.65;;
67585;SDS011;55785;47.946;20.540;2023-03-08T11:57:17;11.93;;;7.25;;
67585;SDS011;55785;47.946;20.540;2023-03-08T12:02:19;12.43;;;7.43;;
67585;SDS011;55785;47.946;20.540;2023-03-08T12:07:41;13.50;;;8.32;;
67585;SDS011;55785;47.946;20.540;2023-03-08T12:15:36;12.45;;;7.90;;
67585;SDS011;55785;47.946;20.540;2023-03-08T12:20:41;13.88;;;8.32;;
67585;SDS011;55785;47.946;20.540;2023-03-08T12:25:53;11.30;;;7.93;;
67585;SDS011;55785;47.946;20.540;2023-03-08T12:28:46;11.18;;;7.75;;
67585;SDS011;55785;47.946;20.540;2023-03-08T12:31:26;12.90;;;8.15;;
67585;SDS011;55785;47.946;20.540;2023-03-08T12:33:54;11.80;;;7.65;;
67585;SDS011;55785;47.946;20.540;2023-03-08T12:36:34;14.90;;;8.60;;
67585;SDS011;55785;47.946;20.540;2023-03-08T12:44:27;17.92;;;11.30;;
67585;SDS011;55785;47.946;20.540;2023-03-08T12:47:37;14.43;;;8.77;;
67585;SDS011;55785;47.946;20.540;2023-03-08T12:49:45;10.30;;;6.80;;
67585;SDS011;55785;47.946;20.540;2023-03-08T12:55:28;16.70;;;9.85;;
67585;SDS011;55785;47.946;20.540;2023-03-08T12:57:49;14.07;;;9.85;;
67585;SDS011;55785;47.946;20.540;2023-03-08T13:02:44;13.90;;;8.90;;
67585;SDS011;55785;47.946;20.540;2023-03-08T13:05:18;9.88;;;6.43;;
67585;SDS011;55785;47.946;20.540;2023-03-08T13:08:02;10.75;;;7.13;;
67585;SDS011;55785;47.946;20.540;2023-03-08T13:10:39;11.60;;;6.28;;
67585;SDS011;55785;47.946;20.540;2023-03-08T13:16:03;9.90;;;6.35;;
67585;SDS011;55785;47.946;20.540;2023-03-08T13:18:48;11.77;;;7.70;;
67585;SDS011;55785;47.946;20.540;2023-03-08T13:21:27;11.35;;;6.90;;
67585;SDS011;55785;47.946;20.540;2023-03-08T13:23:57;12.10;;;8.52;;
67585;SDS011;55785;47.946;20.540;2023-03-08T13:26:44;10.93;;;8.05;;
67585;SDS011;55785;47.946;20.540;2023-03-08T13:29:19;11.25;;;8.00;;
67585;SDS011;55785;47.946;20.540;2023-03-08T13:31:45;11.52;;;7.10;;
67585;SDS011;55785;47.946;20.540;2023-03-08T13:34:31;15.98;;;11.25;;
67585;SDS011;55785;47.946;20.540;2023-03-08T13:36:58;13.38;;;8.10;;
67585;SDS011;55785;47.946;20.540;2023-03-08T13:39:24;12.15;;;7.47;;
67585;SDS011;55785;47.946;20.540;2023-03-08T13:41:51;12.20;;;7.55;;
67585;SDS011;55785;47.946;20.540;2023-03-08T13:46:45;13.02;;;8.23;;
67585;SDS011;55785;47.946;20.540;2023-03-08T13:49:24;13.38;;;7.80;;
67585;SDS011;55785;47.946;20.540;2023-03-08T13:51:52;13.55;;;8.10;;
67585;SDS011;55785;47.946;20.540;2023-03-08T13:54:25;10.85;;;7.18;;
67585;SDS011;55785;47.946;20.540;2023-03-08T13:56:56;11.45;;;7.75;;
67585;SDS011;55785;47.946;20.540;2023-03-08T13:59:23;12.93;;;7.72;;
67585;SDS011;55785;47.946;20.540;2023-03-08T14:01:50;13.48;;;7.75;;
67585;SDS011;55785;47.946;20.540;2023-03-08T14:04:20;14.00;;;8.27;;
67585;SDS011;55785;47.946;20.540;2023-03-08T14:06:52;26.70;;;13.65;;
67585;SDS011;55785;47.946;20.540;2023-03-08T14:09:21;19.48;;;11.40;;
67585;SDS011;55785;47.946;20.540;2023-03-08T14:12:01;12.27;;;8.10;;
67585;SDS011;55785;47.946;20.540;2023-03-08T14:14:31;15.77;;;9.85;;
67585;SDS011;55785;47.946;20.540;2023-03-08T14:17:02;10.93;;;7.13;;
67585;SDS011;55785;47.946;20.540;2023-03-08T14:19:34;11.52;;;7.40;;
67585;SDS011;55785;47.946;20.540;2023-03-08T14:22:09;11.50;;;8.20;;
67585;SDS011;55785;47.946;20.540;2023-03-08T14:24:37;11.48;;;7.15;;
67585;SDS011;55785;47.946;20.540;2023-03-08T14:27:05;14.65;;;8.77;;
67585;SDS011;55785;47.946;20.540;2023-03-08T14:29:37;10.68;;;7.43;;
67585;SDS011;55785;47.946;20.540;2023-03-08T14:34:38;11.00;;;7.15;;
67585;SDS011;55785;47.946;20.540;2023-03-08T14:37:22;14.50;;;8.98;;
67585;SDS011;55785;47.946;20.540;2023-03-08T14:39:53;11.88;;;6.18;;
67585;SDS011;55785;47.946;20.540;2023-03-08T14:42:40;14.68;;;8.75;;
67585;SDS011;55785;47.946;20.540;2023-03-08T14:45:19;15.43;;;8.90;;
67585;SDS011;55785;47.946;20.540;2023-03-08T14:47:57;12.30;;;7.10;;
67585;SDS011;55785;47.946;20.540;2023-03-08T14:50:25;10.32;;;6.80;;
67585;SDS011;55785;47.946;20.540;2023-03-08T14:52:58;12.80;;;7.70;;
67585;SDS011;55785;47.946;20.540;2023-03-08T14:55:27;11.30;;;6.20;;
67585;SDS011;55785;47.946;20.540;2023-03-08T14:58:00;11.17;;;7.23;;
67585;SDS011;55785;47.946;20.540;2023-03-08T15:00:28;14.25;;;8.55;;
67585;SDS011;55785;47.946;20.540;2023-03-08T15:02:55;11.43;;;7.00;;
67585;SDS011;55785;47.946;20.540;2023-03-08T15:05:22;14.02;;;7.57;;
67585;SDS011;55785;47.946;20.540;2023-03-08T15:07:49;10.80;;;6.90;;
67585;SDS011;55785;47.946;20.540;2023-03-08T15:10:36;13.70;;;6.97;;
67585;SDS011;55785;47.946;20.540;2023-03-08T15:15:26;11.50;;;6.23;;
67585;SDS011;55785;47.946;20.540;2023-03-08T15:17:52;10.30;;;6.53;;
67585;SDS011;55785;47.946;20.540;2023-03-08T15:20:17;13.73;;;7.70;;
67585;SDS011;55785;47.946;20.540;2023-03-08T15:23:05;14.48;;;8.23;;
67585;SDS011;55785;47.946;20.540;2023-03-08T15:25:35;11.43;;;7.40;;
67585;SDS011;55785;47.946;20.540;2023-03-08T15:28:02;13.98;;;8.32;;
67585;SDS011;55785;47.946;20.540;2023-03-08T15:30:29;10.63;;;6.45;;
67585;SDS011;55785;47.946;20.540;2023-03-08T15:32:55;11.68;;;7.60;;
67585;SDS011;55785;47.946;20.540;2023-03-08T15:35:21;15.48;;;11.27;;
67585;SDS011;55785;47.946;20.540;2023-03-08T15:37:47;13.05;;;9.02;;
67585;SDS011;55785;47.946;20.540;2023-03-08T15:40:17;12.60;;;8.52;;
67585;SDS011;55785;47.946;20.540;2023-03-08T15:42:44;16.60;;;8.52;;
67585;SDS011;55785;47.946;20.540;2023-03-08T15:45:10;16.63;;;10.80;;
67585;SDS011;55785;47.946;20.540;2023-03-08T15:47:36;13.75;;;9.57;;
67585;SDS011;55785;47.946;20.540;2023-03-08T15:50:03;12.38;;;9.10;;
67585;SDS011;55785;47.946;20.540;2023-03-08T15:52:29;15.32;;;9.15;;
67585;SDS011;55785;47.946;20.540;2023-03-08T15:54:55;17.92;;;12.07;;
67585;SDS011;55785;47.946;20.540;2023-03-08T15:57:20;20.77;;;11.98;;